createdAt,value
2019-02-24T00:01:55.085Z,12.90
2019-02-24T00:05:03.701Z,13.20
2019-02-24T00:08:13.481Z,12.40
2019-02-24T00:11:21.974Z,11.87
2019-02-24T00:14:30.621Z,14.30
2019-02-24T00:17:39.323Z,13.83
2019-02-24T00:20:49.098Z,11.63
2019-02-24T00:24:08.031Z,14.13
2019-02-24T00:27:16.831Z,12.20
2019-02-24T00:30:25.569Z,12.10
2019-02-24T00:33:34.641Z,15.47
2019-02-24T00:36:42.917Z,10.23
2019-02-24T00:39:52.077Z,12.23
2019-02-24T00:43:00.676Z,11.90
2019-02-24T00:46:09.282Z,11.97
2019-02-24T00:49:17.954Z,11.47
2019-02-24T00:52:26.559Z,12.57
2019-02-24T00:55:35.134Z,11.07
2019-02-24T00:58:43.833Z,12.20
2019-02-24T01:02:02.652Z,11.47
2019-02-24T01:05:11.270Z,14.20
2019-02-24T01:08:20.030Z,10.90
2019-02-24T01:11:28.602Z,11.73
2019-02-24T01:14:37.220Z,17.40
2019-02-24T01:17:45.822Z,13.33
2019-02-24T01:20:54.326Z,12.60
2019-02-24T01:24:13.194Z,11.53
2019-02-24T01:27:21.777Z,12.10
2019-02-24T01:30:30.398Z,13.77
2019-02-24T01:33:39.001Z,14.27
2019-02-24T01:36:47.587Z,12.07
2019-02-24T01:39:56.127Z,11.87
2019-02-24T01:43:14.932Z,12.73
2019-02-24T01:46:24.617Z,12.43
2019-02-24T01:49:33.149Z,12.97
2019-02-24T01:52:51.901Z,12.53
2019-02-24T01:56:00.408Z,13.60
2019-02-24T01:59:09.130Z,12.80
2019-02-24T02:02:17.796Z,13.87
2019-02-24T02:05:26.392Z,12.87
2019-02-24T02:08:35.017Z,12.20
2019-02-24T02:11:53.749Z,14.97
2019-02-24T02:15:02.401Z,13.53
2019-02-24T02:18:10.957Z,13.23
2019-02-24T02:21:19.542Z,14.77
2019-02-24T02:24:29.239Z,12.40
2019-02-24T02:27:48.194Z,13.93
2019-02-24T02:30:57.007Z,14.03
2019-02-24T02:34:05.505Z,11.87
2019-02-24T02:37:14.000Z,12.30
2019-02-24T02:40:22.670Z,15.03
2019-02-24T02:43:31.140Z,13.30
2019-02-24T02:46:50.382Z,14.90
2019-02-24T02:50:09.622Z,14.47
2019-02-24T02:53:19.231Z,13.73
2019-02-24T02:56:27.836Z,14.57
2019-02-24T02:59:36.502Z,13.93
2019-02-24T03:02:45.094Z,12.90
2019-02-24T03:06:18.416Z,14.33
2019-02-24T03:09:26.939Z,12.77
2019-02-24T03:12:35.543Z,14.27
2019-02-24T03:15:44.152Z,14.10
2019-02-24T03:18:53.123Z,13.37
2019-02-24T03:22:01.721Z,15.13
2019-02-24T03:25:10.410Z,12.93
2019-02-24T03:28:19.089Z,14.23
2019-02-24T03:31:27.694Z,16.40
2019-02-24T03:34:46.410Z,14.23
2019-02-24T03:37:54.905Z,15.77
2019-02-24T03:41:03.517Z,17.17
2019-02-24T03:44:12.106Z,14.70
2019-02-24T03:47:20.713Z,14.27
2019-02-24T03:50:29.446Z,16.83
2019-02-24T03:53:48.167Z,16.67
2019-02-24T03:56:56.776Z,15.73
2019-02-24T04:00:06.108Z,16.80
2019-02-24T04:03:25.126Z,15.93
2019-02-24T04:06:33.729Z,18.03
2019-02-24T04:09:42.299Z,17.90
2019-02-24T04:12:50.898Z,16.33
2019-02-24T04:15:59.496Z,15.43
2019-02-24T04:19:08.015Z,16.30
2019-02-24T04:22:26.874Z,15.27
2019-02-24T04:25:35.389Z,16.37
2019-02-24T04:28:43.928Z,15.80
2019-02-24T04:31:52.427Z,18.30
2019-02-24T04:35:00.915Z,18.37
2019-02-24T04:38:19.934Z,16.07
2019-02-24T04:41:28.440Z,16.63
2019-02-24T04:44:37.025Z,17.97
2019-02-24T04:47:45.611Z,19.27
2019-02-24T04:50:54.262Z,15.37
2019-02-24T04:54:02.852Z,17.20
2019-02-24T04:57:21.561Z,15.90
2019-02-24T05:00:30.217Z,19.60
2019-02-24T05:03:38.718Z,18.03
2019-02-24T05:06:47.272Z,15.43
2019-02-24T05:09:55.972Z,18.60
2019-02-24T05:13:04.561Z,17.17
2019-02-24T05:16:23.288Z,16.70
2019-02-24T05:19:31.976Z,15.73
2019-02-24T05:22:40.566Z,17.17
2019-02-24T05:25:49.164Z,15.70
2019-02-24T05:28:57.860Z,20.73
2019-02-24T05:32:06.319Z,17.53
2019-02-24T05:35:25.079Z,16.87
2019-02-24T05:38:33.747Z,19.70
2019-02-24T05:41:42.312Z,18.07
2019-02-24T05:44:50.892Z,20.90
2019-02-24T05:47:59.487Z,19.40
2019-02-24T05:51:08.049Z,17.70
2019-02-24T05:54:26.808Z,16.50
2019-02-24T05:57:35.283Z,18.77
2019-02-24T06:00:43.958Z,17.93
2019-02-24T06:03:52.445Z,16.63
2019-02-24T06:07:01.041Z,19.70
2019-02-24T06:10:19.861Z,21.87
2019-02-24T06:13:28.322Z,19.37
2019-02-24T06:16:36.915Z,18.20
2019-02-24T06:19:45.486Z,18.90
2019-02-24T06:23:13.239Z,18.53
2019-02-24T06:26:21.833Z,17.50
2019-02-24T06:29:43.779Z,17.90
2019-02-24T06:32:52.345Z,19.17
2019-02-24T06:36:01.127Z,19.97
2019-02-24T06:39:10.406Z,18.90
2019-02-24T06:42:19.197Z,20.90
2019-02-24T06:45:28.451Z,19.93
2019-02-24T06:48:50.501Z,20.83
2019-02-24T06:52:09.464Z,19.90
2019-02-24T06:55:18.050Z,21.80
2019-02-24T06:58:26.587Z,21.70
2019-02-24T07:01:35.193Z,22.00
2019-02-24T07:04:43.654Z,19.43
2019-02-24T07:08:02.398Z,20.23
2019-02-24T07:11:11.139Z,18.40
2019-02-24T07:14:19.708Z,18.93
2019-02-24T07:17:28.193Z,18.80
2019-02-24T07:20:36.834Z,19.50
2019-02-24T07:23:45.506Z,17.53
2019-02-24T07:26:54.079Z,18.93
2019-02-24T07:30:13.055Z,17.87
2019-02-24T07:33:21.533Z,16.57
2019-02-24T07:36:30.110Z,19.80
2019-02-24T07:39:38.723Z,17.40
2019-02-24T07:42:47.205Z,20.93
2019-02-24T07:45:55.796Z,19.10
2019-02-24T07:49:14.807Z,19.17
2019-02-24T07:52:23.432Z,18.90
2019-02-24T07:55:31.999Z,17.67
2019-02-24T07:58:40.601Z,17.90
2019-02-24T08:01:49.128Z,19.60
2019-02-24T08:04:57.614Z,17.00
2019-02-24T08:08:16.878Z,15.77
2019-02-24T08:11:35.875Z,18.10
2019-02-24T08:14:44.356Z,16.37
2019-02-24T08:17:52.984Z,16.90
2019-02-24T08:21:01.670Z,18.13
2019-02-24T08:24:10.385Z,15.97
2019-02-24T08:27:18.857Z,20.47
2019-02-24T08:30:41.589Z,17.57
2019-02-24T08:33:47.944Z,15.67
2019-02-24T08:36:56.532Z,16.43
2019-02-24T08:40:05.634Z,16.10
2019-02-24T08:43:14.128Z,17.53
2019-02-24T08:46:22.695Z,14.67
2019-02-24T08:49:31.238Z,15.07
2019-02-24T08:52:39.743Z,15.93
2019-02-24T08:55:58.578Z,15.43
2019-02-24T08:59:07.184Z,13.83
2019-02-24T09:02:15.801Z,15.37
2019-02-24T09:05:24.471Z,16.83
2019-02-24T09:08:33.128Z,15.90
2019-02-24T09:11:41.620Z,15.83
2019-02-24T09:15:00.362Z,14.60
2019-02-24T09:18:09.127Z,14.27
2019-02-24T09:21:18.714Z,15.07
2019-02-24T09:24:27.295Z,14.03
2019-02-24T09:27:46.187Z,13.97
2019-02-24T09:31:00.753Z,15.10
2019-02-24T09:34:05.017Z,17.07
2019-02-24T09:37:13.627Z,15.07
2019-02-24T09:40:22.236Z,16.60
2019-02-24T09:43:30.855Z,16.00
2019-02-24T09:46:39.552Z,15.73
2019-02-24T09:49:48.184Z,16.23
2019-02-24T09:53:07.309Z,14.40
2019-02-24T09:56:17.007Z,13.77
2019-02-24T09:59:27.102Z,14.93
2019-02-24T10:02:35.779Z,14.77
2019-02-24T10:05:44.391Z,14.50
2019-02-24T10:09:03.521Z,14.67
2019-02-24T10:12:14.095Z,14.27
2019-02-24T10:15:21.013Z,13.03
2019-02-24T10:18:29.581Z,14.17
2019-02-24T10:21:38.208Z,14.90
2019-02-24T10:24:46.811Z,15.07
2019-02-24T10:27:55.452Z,14.60
2019-02-24T10:31:03.971Z,15.53
2019-02-24T10:34:12.699Z,14.20
2019-02-24T10:37:21.337Z,14.33
2019-02-24T10:40:40.429Z,15.73
2019-02-24T10:43:49.057Z,15.87
2019-02-24T10:46:57.601Z,15.60
2019-02-24T10:50:07.977Z,13.47
2019-02-24T10:53:16.517Z,13.03
2019-02-24T10:56:25.120Z,14.27
2019-02-24T10:59:33.687Z,15.83
2019-02-24T11:02:42.353Z,13.77
2019-02-24T11:06:01.222Z,14.93
2019-02-24T11:09:10.222Z,15.43
2019-02-24T11:12:18.399Z,13.73
2019-02-24T11:15:27.023Z,13.27
2019-02-24T11:18:35.589Z,16.80
2019-02-24T11:21:44.146Z,15.80
2019-02-24T11:25:02.979Z,14.73
2019-02-24T11:28:11.566Z,14.43
2019-02-24T11:31:20.221Z,15.10
2019-02-24T11:34:28.819Z,14.47
2019-02-24T11:37:37.436Z,15.53
2019-02-24T11:40:46.058Z,14.03
2019-02-24T11:43:54.747Z,14.80
2019-02-24T11:47:13.533Z,14.90
2019-02-24T11:50:22.160Z,14.77
2019-02-24T11:53:30.767Z,13.30
2019-02-24T11:56:39.351Z,13.77
2019-02-24T11:59:48.126Z,15.87
2019-02-24T12:02:56.802Z,14.13
2019-02-24T12:06:05.432Z,15.77
2019-02-24T12:09:14.144Z,13.40
2019-02-24T12:12:35.948Z,14.60
2019-02-24T12:15:44.481Z,13.97
2019-02-24T12:18:52.995Z,13.67
2019-02-24T12:22:01.625Z,13.93
2019-02-24T12:25:20.299Z,13.73
2019-02-24T12:28:30.491Z,14.63
2019-02-24T12:31:39.091Z,13.23
2019-02-24T12:34:47.692Z,13.53
2019-02-24T12:37:56.196Z,16.63
2019-02-24T12:41:04.891Z,13.67
2019-02-24T12:44:23.738Z,13.30
2019-02-24T12:47:32.342Z,17.80
2019-02-24T12:50:41.005Z,15.90
2019-02-24T12:53:49.608Z,13.47
2019-02-24T12:56:58.268Z,13.87
2019-02-24T13:00:11.278Z,16.13
2019-02-24T13:03:30.258Z,14.67
2019-02-24T13:06:38.946Z,15.23
2019-02-24T13:09:48.777Z,14.07
2019-02-24T13:12:57.400Z,14.40
2019-02-24T13:16:05.876Z,13.20
2019-02-24T13:19:24.879Z,11.97
2019-02-24T13:22:33.413Z,11.77
2019-02-24T13:25:42.062Z,11.97
2019-02-24T13:28:50.835Z,11.43
2019-02-24T13:31:59.433Z,13.87
2019-02-24T13:35:09.701Z,15.93
2019-02-24T13:38:18.445Z,16.33
2019-02-24T13:41:26.946Z,16.63
2019-02-24T13:44:45.773Z,15.83
2019-02-24T13:47:54.375Z,15.53
2019-02-24T13:51:02.977Z,15.70
2019-02-24T13:54:11.498Z,15.53
2019-02-24T13:57:19.984Z,14.83
2019-02-24T14:00:38.805Z,14.70
2019-02-24T14:03:47.442Z,16.80
2019-02-24T14:06:56.014Z,14.97
2019-02-24T14:10:05.274Z,15.17
2019-02-24T14:13:13.748Z,15.83
2019-02-24T14:16:22.411Z,15.43
2019-02-24T14:19:31.378Z,13.90
2019-02-24T14:22:40.007Z,13.90
2019-02-24T14:25:48.617Z,12.67
2019-02-24T14:28:55.682Z,13.93
2019-02-24T14:32:04.181Z,16.63
2019-02-24T14:35:14.315Z,12.07
2019-02-24T14:38:22.869Z,18.27
2019-02-24T14:41:31.470Z,12.33
2019-02-24T14:44:41.527Z,13.17
2019-02-24T14:47:51.675Z,13.03
2019-02-24T14:51:00.332Z,11.93
2019-02-24T14:54:08.922Z,13.07
2019-02-24T14:57:27.728Z,12.70
2019-02-24T15:00:36.290Z,13.57
2019-02-24T15:03:44.811Z,13.87
2019-02-24T15:06:53.413Z,13.13
2019-02-24T15:10:02.020Z,14.00
2019-02-24T15:13:10.658Z,12.80
2019-02-24T15:16:29.544Z,10.33
2019-02-24T15:19:38.192Z,10.90
2019-02-24T15:22:46.806Z,11.37
2019-02-24T15:25:55.439Z,10.40
2019-02-24T15:29:04.034Z,11.83
2019-02-24T15:32:12.690Z,11.30
2019-02-24T15:35:21.339Z,10.80
2019-02-24T15:38:40.057Z,11.40
2019-02-24T15:41:48.676Z,11.73
2019-02-24T15:44:57.338Z,11.57
2019-02-24T15:48:05.953Z,13.47
2019-02-24T15:51:14.568Z,12.73
2019-02-24T15:54:23.213Z,11.43
2019-02-24T15:57:31.711Z,13.93
2019-02-24T16:00:50.650Z,11.67
2019-02-24T16:03:59.249Z,17.03
2019-02-24T16:07:07.843Z,13.73
2019-02-24T16:10:18.801Z,13.40
2019-02-24T16:13:27.307Z,12.83
2019-02-24T16:16:35.909Z,12.03
2019-02-24T16:19:44.537Z,12.00
2019-02-24T16:22:53.294Z,12.40
2019-02-24T16:26:01.905Z,15.70
2019-02-24T16:29:10.522Z,12.23
2019-02-24T16:32:19.203Z,15.47
2019-02-24T16:35:37.990Z,15.17
2019-02-24T16:38:46.625Z,14.77
2019-02-24T16:41:55.236Z,13.10
2019-02-24T16:45:05.596Z,13.07
2019-02-24T16:48:14.236Z,13.60
2019-02-24T16:51:28.873Z,15.73
2019-02-24T16:54:52.716Z,13.00
2019-02-24T16:57:58.055Z,14.77
2019-02-24T17:01:06.832Z,13.40
2019-02-24T17:04:29.633Z,13.03
2019-02-24T17:07:38.535Z,12.60
2019-02-24T17:10:48.292Z,11.63
2019-02-24T17:14:07.169Z,11.73
2019-02-24T17:17:15.769Z,13.70
2019-02-24T17:20:24.459Z,13.17
2019-02-24T17:23:32.961Z,11.53
2019-02-24T17:26:41.455Z,12.83
2019-02-24T17:29:50.082Z,12.23
2019-02-24T17:33:08.895Z,15.40
2019-02-24T17:36:17.477Z,15.13
2019-02-24T17:39:26.109Z,16.20
2019-02-24T17:42:34.591Z,13.63
2019-02-24T17:45:44.869Z,15.67
2019-02-24T17:48:53.822Z,13.63
2019-02-24T17:52:02.450Z,16.07
2019-02-24T17:55:16.887Z,13.43
2019-02-24T17:58:25.477Z,14.10
2019-02-24T18:01:34.114Z,14.40
2019-02-24T18:04:42.634Z,12.77
2019-02-24T18:07:52.346Z,12.53
2019-02-24T18:11:01.352Z,12.73
2019-02-24T18:14:20.397Z,14.47
2019-02-24T18:17:28.982Z,13.70
2019-02-24T18:20:37.563Z,13.17
2019-02-24T18:23:46.087Z,16.83
2019-02-24T18:26:54.583Z,14.20
2019-02-24T18:30:03.141Z,14.93
2019-02-24T18:33:22.008Z,13.37
2019-02-24T18:36:30.580Z,14.70
2019-02-24T18:39:39.133Z,16.13
2019-02-24T18:42:47.723Z,15.23
2019-02-24T18:45:56.324Z,13.70
2019-02-24T18:49:15.119Z,14.47
2019-02-24T18:52:23.717Z,15.10
2019-02-24T18:55:32.325Z,13.80
2019-02-24T18:58:40.897Z,14.90
2019-02-24T19:01:49.395Z,14.70
2019-02-24T19:04:57.918Z,16.80
2019-02-24T19:08:16.821Z,18.30
2019-02-24T19:11:25.315Z,17.37
2019-02-24T19:14:33.778Z,17.67
2019-02-24T19:17:42.274Z,15.73
2019-02-24T19:20:50.874Z,16.30
2019-02-24T19:24:09.720Z,18.73
2019-02-24T19:27:18.313Z,16.97
2019-02-24T19:30:26.863Z,16.07
2019-02-24T19:33:35.899Z,16.70
2019-02-24T19:36:44.498Z,18.30
2019-02-24T19:39:53.150Z,16.30
2019-02-24T19:43:02.195Z,18.37
2019-02-24T19:46:10.887Z,18.13
2019-02-24T19:49:19.566Z,19.20
2019-02-24T19:52:29.527Z,19.67
2019-02-24T19:55:48.241Z,18.17
2019-02-24T19:58:56.797Z,17.20
2019-02-24T20:02:05.307Z,19.77
2019-02-24T20:05:13.828Z,17.23
2019-02-24T20:08:22.441Z,18.97
2019-02-24T20:11:41.215Z,20.43
2019-02-24T20:14:49.772Z,21.60
2019-02-24T20:17:58.267Z,18.97
2019-02-24T20:21:07.999Z,23.20
2019-02-24T20:24:26.953Z,20.27
2019-02-24T20:27:35.560Z,19.17
2019-02-24T20:30:44.181Z,18.57
2019-02-24T20:33:52.653Z,20.57
2019-02-24T20:37:01.174Z,20.00
2019-02-24T20:40:19.917Z,20.90
2019-02-24T20:43:28.492Z,19.87
2019-02-24T20:46:36.940Z,22.40
2019-02-24T20:49:45.511Z,20.03
2019-02-24T20:52:53.997Z,21.93
2019-02-24T20:56:12.811Z,18.90
2019-02-24T20:59:21.451Z,19.47
2019-02-24T21:02:29.948Z,21.60
2019-02-24T21:05:38.427Z,21.10
2019-02-24T21:08:47.029Z,24.03
2019-02-24T21:12:05.785Z,19.23
2019-02-24T21:15:15.069Z,22.10
2019-02-24T21:18:34.102Z,22.23
2019-02-24T21:21:42.681Z,19.57
2019-02-24T21:24:51.193Z,21.43
2019-02-24T21:27:59.830Z,20.27
2019-02-24T21:31:08.360Z,22.03
2019-02-24T21:34:16.840Z,21.90
2019-02-24T21:37:35.697Z,20.17
2019-02-24T21:40:44.210Z,21.23
2019-02-24T21:43:52.687Z,21.07
2019-02-24T21:47:01.148Z,21.53
2019-02-24T21:50:19.960Z,22.87
2019-02-24T21:53:28.445Z,24.80
2019-02-24T21:56:36.928Z,26.87
2019-02-24T21:59:45.549Z,23.03
2019-02-24T22:02:54.009Z,23.60
2019-02-24T22:06:12.916Z,23.47
2019-02-24T22:09:21.485Z,22.70
2019-02-24T22:12:29.943Z,24.27
2019-02-24T22:15:38.418Z,26.30
2019-02-24T22:18:47.006Z,22.77
2019-02-24T22:22:05.759Z,25.97
2019-02-24T22:25:14.479Z,25.37
2019-02-24T22:28:23.005Z,25.87
2019-02-24T22:31:31.481Z,24.53
2019-02-24T22:34:39.958Z,25.77
2019-02-24T22:37:58.705Z,23.60
2019-02-24T22:41:07.290Z,25.50
2019-02-24T22:44:15.781Z,23.63
2019-02-24T22:47:24.413Z,24.57
2019-02-24T22:50:32.942Z,24.10
2019-02-24T22:53:53.012Z,24.23
2019-02-24T22:57:01.801Z,26.40
2019-02-24T23:00:54.667Z,26.53
2019-02-24T23:04:15.552Z,24.73
2019-02-24T23:07:34.879Z,25.13
2019-02-24T23:10:43.631Z,23.07
2019-02-24T23:13:50.652Z,26.50
2019-02-24T23:16:59.281Z,25.73
2019-02-24T23:20:08.267Z,25.87
2019-02-24T23:23:16.855Z,23.50
2019-02-24T23:26:25.449Z,23.50
2019-02-24T23:29:35.383Z,26.27
2019-02-24T23:32:54.257Z,23.53
2019-02-24T23:36:02.763Z,22.37
2019-02-24T23:39:16.543Z,24.63
2019-02-24T23:42:25.041Z,23.43
2019-02-24T23:45:33.516Z,22.40
2019-02-24T23:48:42.169Z,23.10
2019-02-24T23:52:00.827Z,25.93
2019-02-24T23:55:09.465Z,24.60
2019-02-24T23:58:18.133Z,28.67
